createdAt,value
2023-01-07T00:00:53.056Z,9.90
2023-01-07T00:03:19.769Z,9.90
2023-01-07T00:05:46.367Z,9.90
2023-01-07T00:08:12.847Z,9.90
2023-01-07T00:10:39.357Z,9.90
2023-01-07T00:13:05.840Z,9.90
2023-01-07T00:15:32.289Z,9.90
2023-01-07T00:17:58.813Z,9.90
2023-01-07T00:20:25.354Z,9.80
2023-01-07T00:22:51.913Z,9.90
2023-01-07T00:25:18.418Z,9.90
2023-01-07T00:27:44.955Z,9.90
2023-01-07T00:30:11.926Z,9.90
2023-01-07T00:32:59.636Z,9.90
2023-01-07T00:35:26.191Z,9.90
2023-01-07T00:37:53.443Z,9.90
2023-01-07T00:40:20.628Z,9.90
2023-01-07T00:43:01.400Z,9.80
2023-01-07T00:45:29.803Z,9.80
2023-01-07T00:47:57.798Z,9.80
2023-01-07T00:50:25.149Z,9.80
2023-01-07T00:52:51.736Z,9.80
2023-01-07T00:55:18.218Z,9.80
2023-01-07T00:57:44.669Z,9.80
2023-01-07T01:00:12.274Z,9.80
2023-01-07T01:02:38.966Z,9.80
2023-01-07T01:05:06.218Z,9.80
2023-01-07T01:07:33.600Z,9.80
2023-01-07T01:10:00.154Z,9.80
2023-01-07T01:12:27.161Z,9.80
2023-01-07T01:14:53.693Z,9.80
2023-01-07T01:17:20.807Z,9.70
2023-01-07T01:19:47.360Z,9.70
2023-01-07T01:22:13.835Z,9.80
2023-01-07T01:24:40.269Z,9.80
2023-01-07T01:27:06.711Z,9.80
2023-01-07T01:29:33.208Z,9.80
2023-01-07T01:32:00.888Z,9.80
2023-01-07T01:34:27.353Z,9.80
2023-01-07T01:36:53.806Z,9.80
2023-01-07T01:39:20.579Z,9.80
2023-01-07T01:41:47.646Z,9.80
2023-01-07T01:44:33.014Z,9.80
2023-01-07T01:47:00.467Z,9.80
2023-01-07T01:49:29.935Z,9.90
2023-01-07T01:52:05.278Z,9.90
2023-01-07T01:54:32.702Z,9.80
2023-01-07T01:57:01.315Z,9.80
2023-01-07T01:59:30.217Z,9.80
2023-01-07T02:01:57.148Z,9.90
2023-01-07T02:04:25.695Z,9.90
2023-01-07T02:07:10.351Z,9.80
2023-01-07T02:09:36.899Z,9.90
2023-01-07T02:12:14.011Z,9.80
2023-01-07T02:14:55.197Z,9.80
2023-01-07T02:17:40.365Z,9.80
2023-01-07T02:20:19.430Z,9.90
2023-01-07T02:23:04.780Z,9.90
2023-01-07T02:25:34.281Z,9.90
2023-01-07T02:28:03.881Z,9.90
2023-01-07T02:30:38.339Z,9.90
2023-01-07T02:33:13.865Z,9.90
2023-01-07T02:35:49.472Z,9.90
2023-01-07T02:38:34.905Z,9.90
2023-01-07T02:41:18.227Z,9.90
2023-01-07T02:43:58.930Z,9.90
2023-01-07T02:46:44.126Z,9.90
2023-01-07T02:49:11.581Z,9.90
2023-01-07T02:51:39.389Z,9.90
2023-01-07T02:54:08.259Z,9.90
2023-01-07T02:56:50.019Z,9.90
2023-01-07T02:59:22.713Z,9.90
2023-01-07T03:02:08.726Z,9.90
2023-01-07T03:04:35.237Z,9.90
2023-01-07T03:07:18.065Z,9.90
2023-01-07T03:09:44.498Z,9.90
2023-01-07T03:12:10.981Z,9.90
2023-01-07T03:14:43.659Z,9.90
2023-01-07T03:17:13.593Z,9.90
2023-01-07T03:19:41.825Z,9.80
2023-01-07T03:22:08.806Z,9.80
2023-01-07T03:24:35.903Z,9.80
2023-01-07T03:27:04.382Z,9.80
2023-01-07T03:29:35.656Z,9.80
2023-01-07T03:32:02.248Z,9.80
2023-01-07T03:34:29.198Z,9.80
2023-01-07T03:36:57.892Z,9.80
2023-01-07T03:39:24.935Z,9.70
2023-01-07T03:42:09.878Z,9.70
2023-01-07T03:44:36.816Z,9.70
2023-01-07T03:47:03.632Z,9.70
2023-01-07T03:49:30.456Z,9.70
2023-01-07T03:51:56.899Z,9.60
2023-01-07T03:54:23.861Z,9.60
2023-01-07T03:56:50.284Z,9.70
2023-01-07T03:59:16.813Z,9.70
2023-01-07T04:01:43.410Z,9.60
2023-01-07T04:04:10.024Z,9.70
2023-01-07T04:06:36.638Z,9.70
2023-01-07T04:09:03.386Z,9.70
2023-01-07T04:11:29.888Z,9.60
2023-01-07T04:14:00.460Z,9.60
2023-01-07T04:16:27.630Z,9.70
2023-01-07T04:18:54.185Z,9.60
2023-01-07T04:21:20.741Z,9.60
2023-01-07T04:23:47.188Z,9.60
2023-01-07T04:26:13.702Z,9.60
2023-01-07T04:28:40.244Z,9.60
2023-01-07T04:31:06.987Z,9.60
2023-01-07T04:33:33.525Z,9.60
2023-01-07T04:35:59.972Z,9.60
2023-01-07T04:38:26.474Z,9.50
2023-01-07T04:40:52.913Z,9.50
2023-01-07T04:43:19.436Z,9.60
2023-01-07T04:45:45.921Z,9.60
2023-01-07T04:48:12.426Z,9.50
2023-01-07T04:50:38.884Z,9.60
2023-01-07T04:53:05.402Z,9.60
2023-01-07T04:55:31.920Z,9.50
2023-01-07T04:57:58.389Z,9.60
2023-01-07T05:00:24.824Z,9.60
2023-01-07T05:02:51.371Z,9.60
2023-01-07T05:05:17.830Z,9.60
2023-01-07T05:07:44.356Z,9.60
2023-01-07T05:10:10.891Z,9.60
2023-01-07T05:12:37.318Z,9.60
2023-01-07T05:15:04.875Z,9.60
2023-01-07T05:17:31.658Z,9.60
2023-01-07T05:19:58.106Z,9.50
2023-01-07T05:22:24.626Z,9.60
2023-01-07T05:24:51.061Z,9.60
2023-01-07T05:27:17.954Z,9.50
2023-01-07T05:29:44.400Z,9.50
2023-01-07T05:32:10.888Z,9.50
2023-01-07T05:34:37.404Z,9.50
2023-01-07T05:37:03.886Z,9.50
2023-01-07T05:39:30.400Z,9.50
2023-01-07T05:41:56.998Z,9.50
2023-01-07T05:44:23.547Z,9.60
2023-01-07T05:46:49.990Z,9.50
2023-01-07T05:49:16.516Z,9.50
2023-01-07T05:51:43.045Z,9.60
2023-01-07T05:54:09.562Z,9.50
2023-01-07T05:56:36.140Z,9.50
2023-01-07T05:59:02.628Z,9.50
2023-01-07T06:01:29.213Z,9.50
2023-01-07T06:03:55.820Z,9.50
2023-01-07T06:06:22.385Z,9.50
2023-01-07T06:08:49.078Z,9.50
2023-01-07T06:11:15.565Z,9.50
2023-01-07T06:13:42.229Z,9.50
2023-01-07T06:16:09.855Z,9.50
2023-01-07T06:18:36.697Z,9.50
2023-01-07T06:21:03.278Z,9.50
2023-01-07T06:23:31.184Z,9.50
2023-01-07T06:25:57.697Z,9.50
2023-01-07T06:28:24.195Z,9.50
2023-01-07T06:30:50.729Z,9.50
2023-01-07T06:33:17.291Z,9.50
2023-01-07T06:35:45.126Z,9.50
2023-01-07T06:38:11.616Z,9.50
2023-01-07T06:40:38.045Z,9.50
2023-01-07T06:43:04.525Z,9.50
2023-01-07T06:45:30.941Z,9.50
2023-01-07T06:47:58.356Z,9.50
2023-01-07T06:50:25.208Z,9.50
2023-01-07T06:52:51.758Z,9.50
2023-01-07T06:55:18.273Z,9.40
2023-01-07T06:57:44.798Z,9.50
2023-01-07T07:00:11.522Z,9.50
2023-01-07T07:02:38.175Z,9.50
2023-01-07T07:05:04.925Z,9.50
2023-01-07T07:07:31.446Z,9.40
2023-01-07T07:09:57.915Z,9.40
2023-01-07T07:12:24.549Z,9.40
2023-01-07T07:14:51.016Z,9.40
2023-01-07T07:17:17.672Z,9.40
2023-01-07T07:19:44.221Z,9.40
2023-01-07T07:22:10.824Z,9.50
2023-01-07T07:24:37.312Z,9.50
2023-01-07T07:27:03.860Z,9.40
2023-01-07T07:29:30.365Z,9.40
2023-01-07T07:31:56.840Z,9.50
2023-01-07T07:34:23.297Z,9.50
2023-01-07T07:36:49.870Z,9.50
2023-01-07T07:39:16.345Z,9.50
2023-01-07T07:41:42.853Z,9.50
2023-01-07T07:44:09.282Z,9.50
2023-01-07T07:46:35.806Z,9.50
2023-01-07T07:49:02.394Z,9.50
2023-01-07T07:51:29.133Z,9.50
2023-01-07T07:53:55.662Z,9.50
2023-01-07T07:56:22.147Z,9.50
2023-01-07T07:58:48.711Z,9.50
2023-01-07T08:01:15.222Z,9.50
2023-01-07T08:03:41.828Z,9.50
2023-01-07T08:06:09.643Z,9.40
2023-01-07T08:08:36.124Z,9.40
2023-01-07T08:11:03.781Z,9.50
2023-01-07T08:13:31.108Z,9.50
2023-01-07T08:15:57.705Z,9.50
2023-01-07T08:18:24.235Z,9.60
2023-01-07T08:20:50.811Z,9.70
2023-01-07T08:23:17.552Z,9.70
2023-01-07T08:25:44.097Z,9.80
2023-01-07T08:28:11.007Z,9.80
2023-01-07T08:30:37.527Z,9.90
2023-01-07T08:33:05.437Z,9.90
2023-01-07T08:35:31.981Z,9.90
2023-01-07T08:38:08.627Z,10.00
2023-01-07T08:40:35.666Z,10.00
2023-01-07T08:43:03.329Z,10.00
2023-01-07T08:45:30.210Z,10.10
2023-01-07T08:47:59.647Z,10.10
2023-01-07T08:50:27.602Z,10.10
2023-01-07T08:52:54.112Z,10.00
2023-01-07T08:55:20.993Z,10.10
2023-01-07T08:57:47.920Z,10.10
2023-01-07T09:00:16.032Z,10.10
2023-01-07T09:02:42.877Z,10.10
2023-01-07T09:05:09.877Z,10.10
2023-01-07T09:07:36.660Z,10.20
2023-01-07T09:10:03.638Z,10.30
2023-01-07T09:12:30.151Z,10.30
2023-01-07T09:14:56.743Z,10.30
2023-01-07T09:17:24.262Z,10.30
2023-01-07T09:19:50.828Z,10.30
2023-01-07T09:22:17.259Z,10.30
2023-01-07T09:24:43.779Z,10.30
2023-01-07T09:27:10.419Z,10.40
2023-01-07T09:29:36.945Z,10.40
2023-01-07T09:32:03.419Z,10.40
2023-01-07T09:34:30.097Z,10.40
2023-01-07T09:36:56.581Z,10.40
2023-01-07T09:39:23.140Z,10.40
2023-01-07T09:42:04.110Z,10.40
2023-01-07T09:44:49.131Z,10.50
2023-01-07T09:47:17.928Z,10.50
2023-01-07T09:49:47.422Z,10.50
2023-01-07T09:52:13.853Z,10.50
2023-01-07T09:54:40.618Z,10.50
2023-01-07T09:57:08.534Z,10.50
2023-01-07T09:59:35.053Z,10.50
2023-01-07T10:02:12.983Z,10.50
2023-01-07T10:04:51.431Z,10.60
2023-01-07T10:07:36.753Z,10.60
2023-01-07T10:10:23.496Z,10.60
2023-01-07T10:12:50.030Z,10.60
2023-01-07T10:15:24.767Z,10.60
2023-01-07T10:18:12.252Z,10.60
2023-01-07T10:20:42.530Z,10.70
2023-01-07T10:23:09.046Z,10.70
2023-01-07T10:25:37.649Z,10.70
2023-01-07T10:28:06.414Z,10.70
2023-01-07T10:30:35.788Z,10.80
2023-01-07T10:33:16.908Z,10.90
2023-01-07T10:35:46.030Z,10.90
2023-01-07T10:38:15.167Z,11.00
2023-01-07T10:40:44.406Z,11.10
2023-01-07T10:43:16.912Z,11.20
2023-01-07T10:45:57.277Z,11.20
2023-01-07T10:48:42.093Z,11.30
2023-01-07T10:51:08.561Z,11.40
2023-01-07T10:53:49.964Z,11.40
2023-01-07T10:56:31.055Z,11.50
2023-01-07T10:58:57.802Z,11.50
2023-01-07T11:01:26.051Z,11.60
2023-01-07T11:03:53.905Z,11.80
2023-01-07T11:06:24.819Z,11.90
2023-01-07T11:08:51.457Z,11.80
2023-01-07T11:11:20.008Z,11.80
2023-01-07T11:13:58.397Z,11.80
2023-01-07T11:16:27.416Z,11.80
2023-01-07T11:18:58.419Z,11.70
2023-01-07T11:21:43.656Z,11.70
2023-01-07T11:24:31.312Z,11.70
2023-01-07T11:27:06.488Z,11.60
2023-01-07T11:29:38.900Z,11.60
2023-01-07T11:32:06.265Z,11.70
2023-01-07T11:34:37.399Z,11.80
2023-01-07T11:37:04.557Z,11.90
2023-01-07T11:39:32.796Z,11.90
2023-01-07T11:41:59.247Z,11.80
2023-01-07T11:44:26.115Z,11.80
2023-01-07T11:46:53.391Z,11.80
2023-01-07T11:49:23.013Z,11.70
2023-01-07T11:51:49.847Z,11.60
2023-01-07T11:54:20.862Z,11.60
2023-01-07T11:56:47.453Z,11.60
2023-01-07T11:59:16.911Z,11.60
2023-01-07T12:01:46.530Z,11.60
2023-01-07T12:04:19.342Z,11.50
2023-01-07T12:06:47.066Z,11.40
2023-01-07T12:09:31.705Z,11.40
2023-01-07T12:12:29.599Z,11.40
2023-01-07T12:14:56.451Z,11.40
2023-01-07T12:17:24.535Z,11.30
2023-01-07T12:19:50.930Z,11.40
2023-01-07T12:22:30.717Z,11.30
2023-01-07T12:25:09.233Z,11.30
2023-01-07T12:27:35.833Z,11.30
2023-01-07T12:30:21.163Z,11.20
2023-01-07T12:32:57.936Z,11.20
2023-01-07T12:35:26.364Z,11.10
2023-01-07T12:38:19.398Z,11.10
2023-01-07T12:41:00.291Z,11.10
2023-01-07T12:43:34.425Z,11.10
2023-01-07T12:46:02.473Z,11.10
2023-01-07T12:48:34.511Z,11.10
2023-01-07T12:51:02.835Z,11.00
2023-01-07T12:53:36.308Z,11.00
2023-01-07T12:56:15.748Z,11.00
2023-01-07T12:59:46.936Z,11.00
2023-01-07T13:02:19.908Z,11.00
2023-01-07T13:04:49.466Z,11.00
2023-01-07T13:07:19.378Z,10.90
2023-01-07T13:09:59.601Z,10.90
2023-01-07T13:12:45.804Z,11.00
2023-01-07T13:15:20.640Z,11.00
2023-01-07T13:17:48.515Z,11.00
2023-01-07T13:20:16.395Z,10.90
2023-01-07T13:22:51.322Z,10.90
2023-01-07T13:25:30.179Z,10.90
2023-01-07T13:28:01.443Z,10.90
2023-01-07T13:30:27.962Z,10.90
2023-01-07T13:32:57.463Z,10.90
2023-01-07T13:35:30.166Z,10.80
2023-01-07T13:38:03.391Z,10.80
2023-01-07T13:40:48.981Z,10.80
2023-01-07T13:43:27.685Z,10.80
2023-01-07T13:46:04.778Z,10.80
2023-01-07T13:48:34.690Z,10.80
2023-01-07T13:51:02.371Z,10.80
2023-01-07T13:53:31.270Z,10.80
2023-01-07T13:56:16.245Z,10.80
2023-01-07T13:58:47.326Z,10.80
2023-01-07T14:01:15.377Z,10.90
2023-01-07T14:03:49.711Z,10.80
2023-01-07T14:06:22.269Z,10.80
2023-01-07T14:08:50.481Z,10.80
2023-01-07T14:11:18.284Z,10.80
2023-01-07T14:13:44.773Z,10.80
2023-01-07T14:16:15.626Z,10.80
2023-01-07T14:19:00.997Z,10.80
2023-01-07T14:21:40.258Z,10.80
2023-01-07T14:24:25.589Z,10.80
2023-01-07T14:27:03.120Z,10.80
2023-01-07T14:29:29.613Z,10.80
2023-01-07T14:32:12.150Z,10.80
2023-01-07T14:34:38.916Z,10.80
2023-01-07T14:37:14.359Z,10.80
2023-01-07T14:39:42.937Z,10.80
2023-01-07T14:42:21.356Z,10.80
2023-01-07T14:44:48.815Z,10.80
2023-01-07T14:47:35.249Z,10.80
2023-01-07T14:50:09.744Z,10.90
2023-01-07T14:52:48.787Z,10.90
2023-01-07T14:55:15.270Z,10.80
2023-01-07T14:57:55.047Z,10.80
2023-01-07T15:00:41.360Z,10.80
2023-01-07T15:03:07.868Z,10.80
2023-01-07T15:05:46.057Z,10.80
2023-01-07T15:08:32.251Z,10.80
2023-01-07T15:11:18.320Z,10.80
2023-01-07T15:14:10.045Z,10.80
2023-01-07T15:16:36.821Z,10.90
2023-01-07T15:19:03.490Z,10.90
2023-01-07T15:21:36.499Z,10.80
2023-01-07T15:24:11.450Z,10.80
2023-01-07T15:26:52.935Z,10.80
2023-01-07T15:29:31.754Z,10.80
2023-01-07T15:32:03.391Z,10.80
2023-01-07T15:34:31.647Z,10.70
2023-01-07T15:36:58.869Z,10.80
2023-01-07T15:39:30.681Z,10.80
2023-01-07T15:41:57.602Z,10.80
2023-01-07T15:44:32.399Z,10.70
2023-01-07T15:46:58.923Z,10.70
2023-01-07T15:49:26.143Z,10.70
2023-01-07T15:51:57.164Z,10.80
2023-01-07T15:54:26.824Z,10.80
2023-01-07T15:56:55.440Z,10.70
2023-01-07T15:59:25.554Z,10.70
2023-01-07T16:01:58.721Z,10.70
2023-01-07T16:04:26.881Z,10.70
2023-01-07T16:06:57.865Z,10.70
2023-01-07T16:09:24.587Z,10.70
2023-01-07T16:11:51.153Z,10.70
2023-01-07T16:14:20.194Z,10.70
2023-01-07T16:16:46.761Z,10.80
2023-01-07T16:19:20.133Z,10.80
2023-01-07T16:21:51.390Z,10.80
2023-01-07T16:24:18.422Z,10.80
2023-01-07T16:26:47.677Z,10.80
2023-01-07T16:29:17.023Z,10.80
2023-01-07T16:31:43.788Z,10.80
2023-01-07T16:34:18.603Z,10.80
2023-01-07T16:36:45.440Z,10.80
2023-01-07T16:39:17.935Z,10.90
2023-01-07T16:41:44.503Z,10.80
2023-01-07T16:44:30.934Z,10.80
2023-01-07T16:47:13.505Z,10.80
2023-01-07T16:49:40.023Z,10.80
2023-01-07T16:52:10.698Z,10.80
2023-01-07T16:54:39.993Z,10.70
2023-01-07T16:57:20.252Z,10.70
2023-01-07T16:59:49.519Z,10.70
2023-01-07T17:02:27.001Z,10.70
2023-01-07T17:04:54.145Z,10.70
2023-01-07T17:07:20.714Z,10.70
2023-01-07T17:09:47.276Z,10.70
2023-01-07T17:12:42.866Z,10.60
2023-01-07T17:15:32.602Z,10.60
2023-01-07T17:18:25.481Z,10.50
2023-01-07T17:20:56.694Z,10.50
2023-01-07T17:23:26.229Z,10.40
2023-01-07T17:25:57.565Z,10.30
2023-01-07T17:28:25.728Z,10.20
2023-01-07T17:30:52.434Z,10.10
2023-01-07T17:33:20.291Z,10.00
2023-01-07T17:35:47.139Z,9.90
2023-01-07T17:38:14.745Z,9.80
2023-01-07T17:40:41.648Z,9.70
2023-01-07T17:43:34.049Z,9.60
2023-01-07T17:46:05.077Z,9.50
2023-01-07T17:48:32.312Z,9.40
2023-01-07T17:51:00.536Z,9.30
2023-01-07T17:53:28.650Z,9.20
2023-01-07T17:55:55.281Z,9.10
2023-01-07T17:58:31.714Z,9.00
2023-01-07T18:00:59.143Z,9.00
2023-01-07T18:03:25.799Z,8.90
2023-01-07T18:05:52.296Z,8.80
2023-01-07T18:08:18.821Z,8.70
2023-01-07T18:11:04.358Z,8.60
2023-01-07T18:13:30.948Z,8.60
2023-01-07T18:15:58.142Z,8.50
2023-01-07T18:18:24.979Z,8.40
2023-01-07T18:20:54.038Z,8.40
2023-01-07T18:23:20.926Z,8.40
2023-01-07T18:25:47.463Z,8.30
2023-01-07T18:28:13.937Z,8.30
2023-01-07T18:30:40.696Z,8.20
2023-01-07T18:33:08.071Z,8.10
2023-01-07T18:35:35.220Z,8.10
2023-01-07T18:38:01.867Z,8.10
2023-01-07T18:40:28.425Z,8.00
2023-01-07T18:42:55.703Z,7.90
2023-01-07T18:45:22.445Z,7.90
2023-01-07T18:47:49.520Z,7.90
2023-01-07T18:50:16.291Z,7.80
2023-01-07T18:52:42.981Z,7.80
2023-01-07T18:55:10.288Z,7.80
2023-01-07T18:57:36.993Z,7.80
2023-01-07T19:00:04.633Z,7.80
2023-01-07T19:02:31.278Z,7.80
2023-01-07T19:04:57.707Z,7.80
2023-01-07T19:07:24.158Z,7.80
2023-01-07T19:09:50.809Z,7.80
2023-01-07T19:12:17.301Z,7.80
2023-01-07T19:14:43.850Z,7.80
2023-01-07T19:17:10.706Z,7.70
2023-01-07T19:19:47.983Z,7.90
2023-01-07T19:22:15.960Z,7.90
2023-01-07T19:24:42.559Z,7.90
2023-01-07T19:27:09.174Z,7.90
2023-01-07T19:29:35.721Z,7.90
2023-01-07T19:32:02.272Z,7.90
2023-01-07T19:34:28.840Z,7.80
2023-01-07T19:36:55.349Z,7.70
2023-01-07T19:39:22.891Z,7.60
2023-01-07T19:41:49.863Z,7.60
2023-01-07T19:44:16.434Z,7.60
2023-01-07T19:46:43.915Z,7.50
2023-01-07T19:49:10.981Z,7.50
2023-01-07T19:51:38.428Z,7.40
2023-01-07T19:54:05.361Z,7.40
2023-01-07T19:56:32.078Z,7.40
2023-01-07T19:58:59.326Z,7.40
2023-01-07T20:01:26.416Z,7.40
2023-01-07T20:03:53.993Z,7.30
2023-01-07T20:06:21.881Z,7.40
2023-01-07T20:08:48.864Z,7.40
2023-01-07T20:11:15.543Z,7.50
2023-01-07T20:13:44.278Z,7.50
2023-01-07T20:16:12.486Z,7.40
2023-01-07T20:18:39.850Z,7.40
2023-01-07T20:21:06.778Z,7.40
2023-01-07T20:23:36.688Z,7.40
2023-01-07T20:26:05.913Z,7.30
2023-01-07T20:28:32.942Z,7.30
2023-01-07T20:30:59.734Z,7.30
2023-01-07T20:33:26.211Z,7.20
2023-01-07T20:35:59.267Z,7.20
2023-01-07T20:38:25.761Z,7.10
2023-01-07T20:40:52.367Z,7.00
2023-01-07T20:43:19.596Z,6.90
2023-01-07T20:45:46.156Z,6.90
2023-01-07T20:48:15.200Z,6.80
2023-01-07T20:50:42.396Z,6.70
2023-01-07T20:53:09.654Z,6.60
2023-01-07T20:55:36.297Z,6.60
2023-01-07T20:58:02.942Z,6.50
2023-01-07T21:00:29.598Z,6.40
2023-01-07T21:02:56.181Z,6.40
2023-01-07T21:05:24.308Z,6.40
2023-01-07T21:07:50.910Z,6.50
2023-01-07T21:10:18.471Z,6.50
2023-01-07T21:12:45.427Z,6.60
2023-01-07T21:15:12.916Z,6.60
2023-01-07T21:17:39.845Z,6.60
2023-01-07T21:20:07.130Z,6.70
2023-01-07T21:22:37.735Z,6.70
2023-01-07T21:25:04.969Z,6.60
2023-01-07T21:27:31.529Z,6.60
2023-01-07T21:29:57.970Z,6.60
2023-01-07T21:32:24.570Z,6.60
2023-01-07T21:34:51.068Z,6.70
2023-01-07T21:37:18.348Z,6.80
2023-01-07T21:39:45.926Z,6.80
2023-01-07T21:42:13.579Z,6.80
2023-01-07T21:44:40.329Z,6.80
2023-01-07T21:47:06.861Z,6.90
2023-01-07T21:49:33.325Z,6.90
2023-01-07T21:51:59.788Z,6.90
2023-01-07T21:54:26.437Z,7.00
2023-01-07T21:56:52.873Z,7.00
2023-01-07T21:59:20.825Z,7.00
2023-01-07T22:01:47.541Z,7.00
2023-01-07T22:04:14.236Z,7.00
2023-01-07T22:06:41.647Z,7.00
2023-01-07T22:09:09.142Z,7.00
2023-01-07T22:11:38.530Z,7.00
2023-01-07T22:14:05.073Z,7.00
2023-01-07T22:16:32.018Z,7.00
2023-01-07T22:18:58.679Z,7.10
2023-01-07T22:21:25.655Z,7.10
2023-01-07T22:23:52.183Z,7.10
2023-01-07T22:26:19.469Z,7.10
2023-01-07T22:28:49.684Z,7.20
2023-01-07T22:31:18.979Z,7.20
2023-01-07T22:33:45.562Z,7.20
2023-01-07T22:36:14.543Z,7.10
2023-01-07T22:38:41.113Z,7.20
2023-01-07T22:41:08.206Z,7.20
2023-01-07T22:43:35.372Z,7.20
2023-01-07T22:46:04.465Z,7.20
2023-01-07T22:48:33.005Z,7.20
2023-01-07T22:51:02.822Z,7.20
2023-01-07T22:53:29.897Z,7.30
2023-01-07T22:55:57.605Z,7.30
2023-01-07T22:58:24.275Z,7.20
2023-01-07T23:00:50.719Z,7.30
2023-01-07T23:03:20.711Z,7.30
2023-01-07T23:05:49.910Z,7.30
2023-01-07T23:08:16.503Z,7.30
2023-01-07T23:10:43.098Z,7.30
2023-01-07T23:13:09.690Z,7.30
2023-01-07T23:15:37.085Z,7.20
2023-01-07T23:18:05.335Z,7.20
2023-01-07T23:20:38.107Z,7.20
2023-01-07T23:23:04.913Z,7.20
2023-01-07T23:25:31.527Z,7.20
2023-01-07T23:27:58.001Z,7.30
2023-01-07T23:30:24.551Z,7.30
2023-01-07T23:32:50.997Z,7.40
2023-01-07T23:35:17.694Z,7.40
2023-01-07T23:37:44.232Z,7.40
2023-01-07T23:40:10.862Z,7.50
2023-01-07T23:42:37.375Z,7.60
2023-01-07T23:45:06.995Z,7.60
2023-01-07T23:47:33.830Z,7.70
2023-01-07T23:50:00.371Z,7.80
2023-01-07T23:52:26.850Z,7.90
2023-01-07T23:54:53.346Z,8.00
2023-01-07T23:57:19.871Z,8.10
2023-01-07T23:59:46.359Z,8.20
